Date,TemperatureHighF,TemperatureAvgF,TemperatureLowF,DewpointHighF,DewpointAvgF,DewpointLowF,HumidityHigh,HumidityAvg,HumidityLow,PressureMaxIn,PressureMinIn,WindSpeedMaxMPH,WindSpeedAvgMPH,GustSpeedMaxMPH,PrecipitationSumIn
2013-1-1,47.7,42.8,38.1,45.2,38.3,14.8,100,86,36,26.73,26.62,0,0,0,0.00
2013-1-2,41.1,36.4,32.9,41.1,35.6,32.0,100,97,87,26.73,26.59,0,0,0,0.00
2013-1-3,28.4,27.8,27.0,24.4,23.0,21.0,85,82,77,26.84,26.83,0,0,0,0.00
2013-1-4,35.8,27.9,23.8,22.1,20.1,18.3,84,73,54,26.90,26.83,0,0,0,0.00
2013-1-5,42.4,32.5,23.2,27.4,21.3,18.5,84,65,41,26.95,26.82,0,0,0,0.00
2013-1-6,40.2,34.3,31.7,36.1,31.3,26.4,100,89,72,26.84,26.71,0,0,0,0.00
2013-1-7,42.3,32.4,25.7,29.3,25.6,22.4,89,77,56,27.00,26.81,0,0,0,0.00
2013-1-8,45.1,33.5,22.3,34.4,28.8,20.8,100,84,66,27.03,26.96,0,0,0,0.00
2013-1-9,56.7,47.3,31.0,52.5,46.0,30.8,100,95,74,27.12,27.00,0,0,0,0.00
2013-1-10,54.0,48.3,43.8,54.0,46.8,35.5,100,95,71,27.17,27.03,0,0,0,0.00
2013-1-11,52.9,45.0,38.8,52.9,44.6,35.1,100,99,72,27.03,26.82,14,2,16,0.00
2013-1-12,66.4,57.6,49.9,61.7,56.8,49.9,100,97,81,26.89,26.82,3,0,6,0.00
2013-1-13,61.3,57.5,55.4,58.2,56.3,54.6,100,96,86,26.83,26.76,0,0,0,0.00
2013-1-14,57.2,55.3,54.5,56.9,55.3,54.5,100,100,100,26.83,26.78,4,1,6,0.00
2013-1-15,44.1,40.0,36.2,44.1,40.0,36.2,100,100,100,26.85,26.72,5,1,38,0.00
2013-1-16,60.3,49.0,37.5,53.8,48.2,37.5,100,97,73,26.72,26.64,11,2,38,0.00
2013-1-17,47.9,38.5,25.7,47.7,38.5,25.7,100,100,100,26.79,26.56,14,4,15,0.00
2013-1-18,34.3,26.0,21.5,34.3,25.3,21.0,100,97,86,27.08,26.80,11,4,23,0.00
2013-1-19,46.3,31.4,17.8,34.0,25.8,17.1,99,82,43,27.04,26.78,6,1,23,0.00
2013-1-20,43.8,37.9,31.5,34.6,29.1,22.4,85,71,52,26.77,26.71,0,0,0,0.00
2013-1-21,40.6,33.4,22.2,29.5,22.0,6.9,82,63,49,26.73,26.57,0,0,0,0.00
2013-1-22,22.2,17.4,12.5,8.3,0.3,-4.0,60,47,35,26.76,26.56,0,0,0,0.00
2013-1-23,34.3,24.0,16.0,27.2,12.4,-2.5,75,61,43,26.84,26.62,0,0,0,0.00
2013-1-24,35.8,24.2,13.4,29.9,12.2,1.9,86,61,42,26.96,26.55,0,0,0,0.00
2013-1-25,33.2,19.5,12.7,33.2,15.1,2.6,100,83,62,26.97,26.63,17,1,80,0.00
2013-1-26,35.1,29.0,25.6,30.7,26.0,22.9,100,89,73,26.92,26.65,12,5,30,0.00
2013-1-27,28.6,24.6,19.6,27.2,23.4,18.4,100,95,85,27.07,26.93,0,0,0,0.00
2013-1-28,54.1,40.1,27.9,47.4,37.4,27.1,100,91,76,27.00,26.89,0,0,0,0.00
2013-1-29,62.6,54.5,45.3,55.2,48.7,41.4,100,82,64,26.90,26.76,0,0,0,0.00
2013-1-30,57.9,53.4,41.1,57.9,53.4,40.0,100,100,96,26.74,26.21,26,2,35,1.45
2013-1-31,41.1,27.8,23.9,39.0,23.1,18.2,98,83,73,26.58,26.21,0,0,0,0.02
2013-2-1,33.4,18.8,12.2,28.1,11.6,3.8,98,73,64,26.85,26.50,0,0,0,0.00
2013-2-2,29.3,22.4,14.6,28.3,15.4,1.6,100,75,51,26.86,26.61,0,0,0,0.00
2013-2-3,29.9,26.7,22.7,27.9,24.6,18.9,98,91,84,26.60,26.44,0,0,0,0.06
2013-2-4,41.3,30.0,19.9,27.2,21.4,15.3,84,71,55,26.70,26.58,0,0,0,0.10
2013-2-5,41.0,36.9,31.9,38.0,30.9,24.5,97,79,59,26.64,26.56,0,0,0,0.00
2013-2-6,48.5,38.8,28.4,35.5,28.5,23.6,85,68,41,26.90,26.64,0,0,0,0.00
2013-2-7,36.8,32.2,28.4,33.8,29.3,24.2,100,89,74,26.91,26.68,0,0,0,2.57
2013-2-8,43.7,35.5,27.4,41.3,33.5,22.6,100,93,65,26.69,26.56,0,0,0,8.12
2013-2-9,48.8,33.7,25.3,22.7,19.4,15.8,82,59,30,26.95,26.68,0,0,0,0.00
2013-2-10,42.2,34.6,26.0,36.8,24.9,20.0,100,70,48,27.00,26.79,0,0,0,0.11
2013-2-11,57.0,47.0,39.3,54.1,42.4,29.6,100,85,57,26.79,26.66,36,2,40,0.08
2013-2-12,48.9,39.9,33.2,33.0,25.8,20.9,99,59,37,26.73,26.61,0,0,0,0.04
2013-2-13,40.8,34.9,30.3,40.8,34.8,29.8,100,100,96,26.60,26.32,26,5,28,0.45
2013-2-14,47.0,35.0,25.9,33.1,27.7,23.2,96,76,51,26.69,26.48,34,3,53,0.01
2013-2-15,49.8,36.8,28.7,36.7,31.5,26.1,98,83,46,26.72,26.63,0,0,0,0.03
2013-2-16,28.7,24.3,16.1,25.5,19.1,11.7,89,80,65,26.64,26.46,0,0,0,0.00
2013-2-17,25.9,19.1,12.2,12.3,9.0,5.2,80,65,48,26.77,26.51,0,0,0,0.00
2013-2-18,43.1,33.1,21.7,26.2,19.6,7.8,67,58,48,26.91,26.78,0,0,0,0.01
2013-2-19,42.1,35.2,27.4,38.7,26.7,12.0,100,73,45,26.77,26.53,0,0,0,0.05
2013-2-20,36.5,28.1,22.3,14.5,10.7,6.9,67,49,32,26.73,26.57,0,0,0,0.00
2013-2-21,53.9,38.0,25.6,29.2,11.1,1.2,84,34,16,26.86,26.71,0,0,0,0.00
2013-2-22,33.5,29.7,28.4,31.8,29.5,28.4,100,99,88,26.86,26.72,0,0,0,0.15
2013-2-23,48.6,41.2,29.4,48.6,41.2,29.4,100,100,100,26.71,26.52,6,1,31,0.43
2013-2-24,47.0,39.8,32.5,41.8,30.8,22.1,100,71,50,26.69,26.52,0,0,0,0.00
2013-2-25,35.6,29.8,26.8,27.5,23.6,21.2,86,78,67,26.77,26.67,0,0,0,0.00
2013-2-26,34.3,30.1,24.3,34.3,29.6,21.6,100,98,82,26.71,26.27,0,0,12,0.62
2013-2-27,46.3,35.6,31.1,38.8,32.6,28.9,100,89,70,26.45,26.30,27,2,50,0.14
2013-2-28,31.8,27.4,25.4,29.5,25.0,23.4,99,90,84,26.49,26.36,0,0,0,0.02
2013-3-1,31.4,28.2,25.8,28.5,26.4,24.8,98,93,87,26.54,26.47,0,0,0,0.00
2013-3-2,31.1,26.6,19.2,27.0,23.5,14.9,96,88,77,26.53,26.46,0,0,0,0.02
2013-3-3,25.7,20.7,16.9,19.1,15.3,12.6,88,80,71,26.57,26.48,0,0,0,0.00
2013-3-4,42.3,29.1,18.4,21.9,15.7,11.5,80,59,30,26.70,26.57,0,0,0,0.00
2013-3-5,39.2,34.1,30.4,39.2,31.7,21.5,100,91,68,26.69,26.32,31,2,31,0.87
2013-3-6,30.4,24.0,20.8,27.4,22.3,18.9,97,93,85,26.70,26.28,32,10,41,0.00
2013-3-7,32.2,26.0,22.8,28.2,23.8,21.2,100,92,83,26.85,26.70,15,6,33,0.00
2013-3-8,41.1,30.6,22.4,29.9,24.0,19.3,90,77,59,26.94,26.82,0,0,0,0.00
2013-3-9,54.2,38.5,23.2,34.1,27.6,20.8,93,68,40,26.95,26.90,0,0,0,0.00
2013-3-10,54.6,43.8,30.8,38.5,33.7,27.7,93,69,51,26.93,26.84,0,0,0,0.00
2013-3-11,47.9,43.2,39.6,47.9,41.5,34.7,100,94,66,26.85,26.59,7,0,11,0.71
2013-3-12,47.9,40.3,33.6,47.9,38.1,30.1,100,92,75,26.67,26.49,14,6,20,0.60
2013-3-13,34.5,30.0,22.9,31.2,23.7,14.9,97,77,64,26.73,26.64,25,3,48,0.04
2013-3-14,37.3,27.2,18.3,21.7,16.5,12.3,81,65,48,26.84,26.71,0,0,0,0.00
2013-3-15,56.8,42.3,29.1,41.3,30.9,16.2,85,65,45,26.79,26.63,0,0,0,0.01
2013-3-16,67.4,57.2,46.4,51.7,47.6,41.3,88,71,55,26.62,26.48,0,0,0,0.02
2013-3-17,56.8,48.9,33.8,52.3,46.5,33.8,100,92,79,26.75,26.62,0,0,0,0.01
2013-3-18,37.5,31.7,29.3,37.5,31.7,29.3,100,100,100,26.75,26.55,9,2,10,0.40
2013-3-19,46.6,40.3,33.2,44.8,30.4,12.2,100,72,33,26.70,26.52,14,2,21,0.01
2013-3-20,44.8,34.7,25.6,27.8,14.5,5.7,98,45,33,26.71,26.48,0,0,0,0.00
2013-3-21,26.2,21.5,16.7,20.9,12.1,9.9,86,67,55,26.54,26.39,0,0,0,0.00
2013-3-22,41.5,29.0,16.4,27.8,14.6,9.6,78,57,33,26.65,26.53,0,0,0,0.00
2013-3-23,45.6,38.1,33.6,41.0,34.8,27.8,99,88,81,26.67,26.57,0,0,0,0.00
2013-3-24,39.1,33.6,29.6,36.0,33.0,29.6,100,98,84,26.59,26.23,8,2,10,0.77
2013-3-25,30.4,26.4,23.6,30.4,24.7,21.6,100,94,84,26.44,26.19,18,5,21,0.00
2013-3-26,30.5,26.5,23.2,26.0,23.2,20.9,92,87,79,26.74,26.44,30,7,52,0.01
2013-3-27,32.7,27.4,23.8,24.7,21.6,19.1,91,79,69,26.84,26.73,22,4,93,0.01
2013-3-28,40.5,31.3,25.0,28.2,22.1,17.3,75,69,59,26.91,26.80,15,3,73,0.06
2013-3-29,47.0,37.0,28.5,32.4,25.1,20.9,87,64,37,26.93,26.86,0,0,0,0.01
2013-3-30,53.3,42.7,29.9,40.0,34.5,29.6,100,75,49,26.87,26.76,0,0,0,0.00
2013-3-31,53.8,47.2,41.6,50.1,45.3,39.3,100,94,80,26.75,26.55,10,2,19,0.36
2013-4-1,50.2,44.9,38.4,45.5,40.1,31.9,100,84,65,26.66,26.56,0,0,0,0.00
2013-4-2,45.3,37.7,29.6,32.2,25.2,19.1,81,62,40,26.79,26.66,0,0,0,0.00
2013-4-3,52.3,38.6,27.4,26.2,19.4,14.9,63,47,27,26.92,26.79,0,0,0,0.00
2013-4-4,36.1,31.8,28.4,32.4,24.5,13.1,100,78,43,26.91,26.63,0,0,0,0.04
2013-4-5,50.5,41.1,32.4,42.5,36.9,32.4,100,86,60,26.75,26.59,13,2,17,0.17
2013-4-6,56.2,46.8,32.1,39.5,35.1,29.3,92,65,47,26.90,26.75,0,0,0,0.00
2013-4-7,60.7,50.8,35.8,46.6,41.7,34.2,95,71,59,26.88,26.81,0,0,0,0.00
2013-4-8,66.8,56.2,41.0,54.4,48.3,39.6,98,76,62,26.86,26.80,0,0,0,0.00
2013-4-9,74.1,61.2,43.8,57.9,52.6,43.8,100,76,52,26.94,26.84,0,0,0,0.00
2013-4-10,76.2,65.9,54.5,60.1,56.2,52.5,94,72,51,26.87,26.75,0,0,0,0.00
2013-4-11,69.0,61.8,53.3,61.2,56.4,52.5,100,83,66,26.75,26.52,8,1,13,0.11
2013-4-12,61.3,55.5,46.7,61.3,51.5,39.2,100,87,60,26.59,26.42,21,3,30,1.46
2013-4-13,59.7,50.5,43.2,41.3,38.0,33.8,80,64,41,26.77,26.56,0,0,0,0.00
2013-4-14,63.6,53.8,38.9,48.3,40.9,33.9,89,63,43,26.82,26.73,0,0,0,0.00
2013-4-15,51.4,49.1,46.7,50.9,49.0,46.7,100,100,89,26.93,26.73,28,3,28,0.28
2013-4-16,68.2,58.3,50.7,64.3,56.4,50.6,100,94,79,27.00,26.92,11,2,11,0.01
2013-4-17,64.9,59.2,55.2,60.8,57.7,55.2,100,95,79,26.99,26.89,11,1,24,0.22
2013-4-18,65.6,59.7,53.5,60.2,57.7,53.5,100,94,74,26.89,26.74,0,0,0,0.04
2013-4-19,60.6,54.6,39.9,60.6,54.4,38.0,100,99,92,26.73,26.51,26,8,36,1.33
2013-4-20,50.5,42.4,34.9,38.1,33.3,27.4,90,71,55,26.95,26.60,15,2,20,0.00
2013-4-21,49.8,41.0,30.1,36.7,32.5,27.6,94,73,56,27.09,26.95,0,0,5,0.00
2013-4-22,52.3,43.1,34.5,40.4,34.7,27.9,95,74,55,27.07,26.92,0,0,0,0.00
2013-4-23,62.1,48.4,31.1,48.5,40.9,28.5,96,76,60,26.94,26.82,0,0,0,0.00
2013-4-24,63.9,54.4,43.0,57.4,51.0,43.0,100,89,73,26.83,26.73,0,0,0,0.04
2013-4-25,58.8,47.2,34.1,45.3,34.1,22.3,100,66,27,26.99,26.80,0,0,6,0.00
2013-4-26,58.9,49.0,36.5,42.3,36.1,29.2,76,62,48,27.08,26.99,0,0,0,0.00
2013-4-27,52.1,49.2,46.7,49.6,45.6,39.5,100,88,63,27.06,26.93,4,0,67,0.17
2013-4-28,48.9,46.3,44.6,48.9,46.3,44.6,100,100,100,26.93,26.74,12,2,13,0.85
2013-4-29,62.5,54.6,48.0,57.4,53.4,48.0,100,96,75,26.77,26.71,18,2,70,0.03
2013-4-30,64.3,55.8,52.3,62.0,54.9,52.3,100,97,79,26.92,26.75,25,2,25,0.02
2013-5-1,56.5,51.9,48.6,53.9,51.4,48.6,100,98,88,27.00,26.90,26,2,86,0.03
2013-5-2,51.1,48.8,45.8,51.1,48.8,45.8,100,100,100,27.02,26.96,12,3,12,0.27
2013-5-3,53.6,48.8,44.0,50.6,47.7,44.0,100,96,82,26.93,26.84,27,6,63,0.06
2013-5-4,49.0,42.9,38.5,47.7,42.1,38.5,100,97,87,26.84,26.74,0,0,0,0.09
2013-5-5,47.7,42.4,38.6,47.7,42.4,38.6,100,100,100,26.74,26.61,15,2,23,2.59
2013-5-6,55.2,49.6,44.6,54.9,49.3,44.6,100,99,72,26.64,26.57,20,5,27,2.12
2013-5-7,53.5,47.4,44.3,53.5,47.4,44.3,100,100,98,26.67,26.60,9,1,35,0.72
2013-5-8,58.7,51.9,45.3,57.4,51.4,45.3,100,98,87,26.77,26.64,79,3,79,0.04
2013-5-9,69.3,58.5,49.9,58.3,53.8,49.9,100,86,59,26.86,26.75,33,3,125,0.00
2013-5-10,69.4,59.8,49.1,60.7,56.6,49.1,100,90,67,26.85,26.74,31,1,31,0.07
2013-5-11,64.2,58.7,53.2,61.8,56.8,50.7,100,94,84,26.72,26.61,7,3,16,0.05
2013-5-12,53.6,49.0,42.3,50.6,41.4,32.1,100,76,59,26.76,26.61,14,5,16,0.00
2013-5-13,53.3,45.2,37.1,38.4,33.0,29.9,77,63,48,26.87,26.75,43,4,133,0.00
2013-5-14,66.1,51.5,32.1,49.8,40.9,30.0,93,69,47,26.92,26.80,146,6,181,0.00
2013-5-15,77.4,67.0,57.9,62.0,56.9,50.7,84,71,54,26.85,26.77,0,0,0,0.00
2013-5-16,69.7,63.8,55.8,59.1,53.9,48.2,80,70,59,26.83,26.74,0,0,0,0.00
2013-5-17,69.5,61.6,53.9,64.9,57.9,49.5,100,88,75,26.88,26.80,6,0,11,0.45
2013-5-18,61.0,58.0,54.9,61.0,58.0,54.9,100,100,100,26.91,26.84,5,2,8,0.57
2013-5-19,64.5,60.7,58.5,64.5,60.7,58.5,100,100,100,26.88,26.81,9,2,11,0.08
2013-5-20,73.9,63.2,56.8,67.4,61.8,56.8,100,96,74,26.89,26.82,8,1,14,0.18
2013-5-21,77.1,66.5,56.5,68.8,63.6,56.5,100,91,64,26.85,26.76,0,0,0,0.01
2013-5-22,72.5,62.7,56.5,69.0,61.8,56.5,100,97,83,26.79,26.72,14,1,81,0.90
2013-5-23,72.1,61.8,54.3,64.0,58.9,54.3,100,91,64,26.72,26.65,49,5,114,0.05
2013-5-24,54.4,52.2,47.6,54.4,51.9,46.8,100,99,95,26.75,26.64,0,0,0,0.03
2013-5-25,64.6,55.5,41.6,47.1,40.6,36.6,84,59,38,26.98,26.92,0,0,0,0.00
2013-5-26,65.8,56.0,48.5,52.9,46.0,36.7,97,70,56,26.98,26.90,0,0,0,0.00
2013-5-27,69.2,58.4,44.9,60.5,54.5,44.9,100,88,73,26.99,26.92,0,0,0,0.00
2013-5-28,72.4,64.1,54.7,66.6,60.8,54.7,100,90,71,26.98,26.90,0,0,0,0.00
2013-5-29,73.8,65.8,54.2,66.0,62.0,54.2,100,88,62,27.00,26.92,0,0,0,0.00
2013-5-30,73.6,64.4,54.0,64.8,60.6,54.0,100,88,71,27.03,26.96,0,0,0,0.00
2013-5-31,72.7,65.3,55.5,65.1,61.2,55.5,100,88,72,26.99,26.91,0,0,0,0.00
2013-6-1,73.6,66.8,59.7,68.5,63.3,59.7,100,89,73,26.90,26.82,0,0,0,0.00
2013-6-2,69.8,64.1,60.5,67.7,63.6,60.5,100,98,90,26.83,26.71,0,0,3,0.28
2013-6-3,73.1,64.4,58.1,65.5,61.4,58.1,100,91,71,26.79,26.68,4,0,11,0.00
2013-6-4,65.9,59.4,54.2,63.4,58.8,54.2,100,98,88,26.89,26.77,0,0,0,0.03
2013-6-5,62.3,59.3,53.9,62.3,59.3,53.9,100,100,100,26.89,26.79,5,1,171,0.17
2013-6-6,68.0,62.9,58.5,68.0,62.9,58.5,100,100,100,26.77,26.61,8,2,10,0.98
2013-6-7,70.2,64.0,59.4,68.7,63.3,59.4,100,98,89,26.65,26.51,6,2,13,0.38
2013-6-8,73.2,65.1,56.5,66.4,62.0,56.5,100,91,70,26.89,26.64,5,1,8,0.62
2013-6-9,72.0,64.0,58.3,70.6,63.4,58.3,100,98,84,26.94,26.85,10,2,13,1.41
2013-6-10,71.3,65.2,59.7,68.0,63.3,58.9,100,94,66,26.84,26.69,16,3,19,1.15
2013-6-11,71.2,64.8,58.8,65.1,62.1,58.8,100,91,77,26.81,26.72,12,2,77,0.12
2013-6-12,81.1,72.0,61.4,73.6,68.9,61.4,100,90,77,26.83,26.74,0,0,0,0.00
2013-6-13,78.1,69.0,58.5,70.7,65.8,55.3,100,90,76,26.73,26.55,7,1,19,0.31
2013-6-14,68.4,61.1,54.0,58.2,55.8,53.7,100,83,70,26.84,26.62,13,4,19,0.00
2013-6-15,73.2,62.5,47.7,61.8,57.1,47.7,100,84,65,26.92,26.83,4,0,7,0.00
2013-6-16,73.6,66.0,54.6,68.0,63.1,54.6,100,91,75,26.91,26.83,7,2,11,0.00
2013-6-17,73.1,66.5,61.6,69.9,65.3,61.6,100,96,83,26.84,26.77,4,1,7,0.11
2013-6-18,69.2,64.2,58.5,68.4,64.1,58.5,100,100,95,26.74,26.64,9,2,9,0.57
2013-6-19,70.3,62.3,54.2,65.9,60.4,54.2,100,94,81,26.92,26.73,9,1,9,0.00
2013-6-20,69.5,63.3,57.0,67.4,62.7,57.0,100,98,90,27.02,26.91,8,2,12,0.01
2013-6-21,72.7,65.2,58.8,66.5,62.7,58.8,100,92,77,27.04,26.98,9,2,11,0.00
2013-6-22,73.9,64.2,52.2,66.7,61.0,52.2,100,90,66,27.02,26.93,9,2,9,0.00
2013-6-23,75.7,64.7,49.5,69.9,62.4,49.5,100,93,71,27.00,26.93,9,1,33,0.51
2013-6-24,74.4,65.6,57.2,70.9,64.9,57.2,100,98,88,27.01,26.92,7,1,8,0.11
2013-6-25,77.4,68.7,61.7,71.0,66.8,61.7,100,94,72,26.94,26.84,6,1,7,0.00
2013-6-26,77.4,69.2,62.0,72.5,67.6,62.0,100,95,84,26.84,26.75,8,2,11,0.03
2013-6-27,73.1,67.0,60.2,71.4,66.1,60.2,100,97,89,26.75,26.60,14,3,15,0.34
2013-6-28,75.3,69.0,64.3,71.3,67.3,63.0,100,94,82,26.62,26.49,7,3,12,0.04
2013-6-29,76.0,67.6,58.3,66.5,62.6,58.2,100,85,57,26.56,26.47,7,2,10,0.00
2013-6-30,71.7,63.8,55.5,68.1,62.4,55.5,100,95,84,26.66,26.53,7,2,9,1.38
2013-7-1,68.7,63.1,58.5,68.7,63.1,58.5,100,100,100,26.79,26.63,12,2,13,1.28
2013-7-2,68.4,64.5,61.6,68.4,64.5,61.6,100,100,100,26.93,26.76,8,2,10,0.54
2013-7-3,67.5,63.5,58.3,67.5,63.5,58.3,100,100,100,27.00,26.91,6,1,11,1.99
2013-7-4,68.4,64.3,58.9,68.4,64.3,58.9,100,100,100,27.02,26.97,11,3,14,2.32
2013-7-5,72.4,66.4,63.6,71.7,66.3,63.6,100,100,94,27.04,26.97,12,3,15,0.48
2013-7-6,71.2,66.6,64.6,71.2,66.6,64.6,100,100,100,27.01,26.93,5,2,11,0.29
2013-7-7,74.1,66.8,63.2,72.8,66.6,63.2,100,99,92,26.97,26.90,35,3,42,1.97
2013-7-8,77.9,68.4,63.2,69.3,65.9,63.2,100,92,67,26.99,26.93,82,4,82,0.00
2013-7-9,78.0,69.6,61.7,73.8,67.8,61.7,100,94,72,26.98,26.90,5,1,13,0.02
2013-7-10,78.0,69.0,62.9,74.3,68.3,62.9,100,98,86,26.90,26.78,7,2,12,0.58
2013-7-11,74.4,68.0,63.3,72.2,67.3,63.3,100,98,90,26.78,26.72,6,1,14,0.00
2013-7-12,71.2,65.0,59.7,69.6,64.5,59.7,100,98,92,26.84,26.71,41,5,49,0.28
2013-7-13,68.1,63.3,59.7,68.1,63.3,59.7,100,100,100,26.93,26.82,34,6,48,0.11
2013-7-14,71.2,66.3,63.5,71.2,66.3,63.5,100,100,100,27.09,26.91,29,5,71,1.78
2013-7-15,75.1,68.3,62.2,70.7,66.9,62.2,100,96,80,27.14,27.08,47,4,175,0.00
2013-7-16,82.2,69.9,58.0,72.2,66.3,58.0,100,90,64,27.13,27.06,64,8,217,0.01
2013-7-17,81.1,71.4,64.3,75.4,70.0,64.3,100,95,81,27.09,27.00,0,0,2,0.01
2013-7-18,79.4,72.9,62.2,75.3,70.6,62.2,100,93,74,27.00,26.91,6,1,10,0.01
2013-7-19,78.3,70.6,62.5,74.7,69.3,62.5,100,96,81,26.94,26.84,7,2,13,0.00
2013-7-20,76.2,59.2,-33.0,72.4,58.5,-33.0,100,98,84,26.86,26.77,7,1,9,0.00
2013-7-21,78.1,58.2,-33.0,73.8,57.3,-33.0,100,97,83,26.84,26.77,5,1,10,0.01
2013-7-22,75.3,67.9,62.8,71.8,67.5,62.8,100,99,89,26.79,26.68,10,2,13,0.61
2013-7-23,75.6,68.6,64.6,69.8,66.8,64.6,100,94,79,26.70,26.63,11,3,12,0.16
2013-7-24,78.3,69.8,64.0,71.2,67.5,64.0,100,93,74,26.71,26.63,4,0,53,0.00
2013-7-25,71.4,65.7,59.0,70.0,64.9,59.0,100,97,89,26.86,26.70,8,1,12,0.00
2013-7-26,73.6,64.9,55.2,69.5,63.7,55.2,100,96,82,26.89,26.83,13,2,13,0.07
2013-7-27,68.4,63.8,61.3,68.4,63.8,61.3,100,100,100,26.84,26.74,8,2,9,0.41
2013-7-28,74.6,65.3,59.4,68.4,63.2,59.4,100,94,77,26.84,26.72,7,2,33,0.11
2013-7-29,73.4,62.7,54.1,63.9,57.6,51.4,100,85,48,26.99,26.82,3,1,10,0.05
2013-7-30,68.4,61.8,52.7,66.9,60.7,52.7,100,97,85,27.01,26.96,8,2,23,0.00
2013-7-31,64.8,62.4,59.3,64.8,62.4,59.3,100,100,100,26.96,26.80,3,1,5,0.00
2013-8-1,76.5,67.6,62.1,70.1,65.8,62.1,100,94,74,26.79,26.73,6,2,12,0.00
2013-8-2,75.5,66.3,58.8,69.5,63.8,58.8,100,92,74,26.87,26.77,5,1,7,0.00
2013-8-3,76.4,67.7,59.6,68.7,65.1,59.6,100,92,72,26.85,26.80,7,1,10,0.00
2013-8-4,73.9,67.1,58.2,67.2,62.9,58.2,100,88,65,26.86,26.77,13,3,16,0.00
2013-8-5,71.7,64.0,55.4,68.6,62.8,55.4,100,96,87,26.87,26.80,9,2,11,0.00
2013-8-6,73.2,66.7,61.3,69.5,65.8,61.3,100,97,80,26.85,26.77,7,2,29,0.00
2013-8-7,66.7,65.4,63.6,66.7,65.4,63.6,100,100,100,26.89,26.83,8,2,11,0.00
2013-8-8,73.6,68.9,64.6,73.6,68.8,64.6,100,100,97,26.87,26.83,9,2,9,0.00
2013-8-9,79.4,71.8,65.7,74.0,70.3,65.7,100,95,81,26.89,26.83,7,2,12,0.01
2013-8-10,73.2,70.0,0.5,71.7,68.8,0.0,100,96,95,26.94,26.85,4,0,5,0.00
2013-8-11,79.2,70.3,63.0,74.5,68.8,63.0,100,95,82,26.94,26.88,6,2,11,0.00
2013-8-12,78.4,70.7,65.7,73.8,69.3,65.7,100,96,81,26.90,26.80,7,2,9,0.00
2013-8-13,74.0,67.1,62.2,72.5,66.7,62.2,100,99,91,26.78,26.67,11,2,12,0.00
2013-8-14,68.1,61.3,52.6,61.5,58.0,52.6,100,90,66,26.87,26.71,6,2,9,0.00
2013-8-15,60.6,54.2,48.6,58.3,53.6,48.6,100,98,92,26.92,26.86,5,1,10,0.00
2013-8-16,65.2,56.2,47.4,61.1,55.0,47.4,100,96,81,26.94,26.86,7,2,9,0.00
2013-8-17,60.0,57.0,51.4,59.7,56.9,51.4,100,100,98,26.95,26.90,5,1,10,0.00
2013-8-18,66.8,61.9,58.0,66.8,61.9,58.0,100,100,100,26.99,26.91,8,2,8,0.00
2013-8-19,67.0,63.5,60.4,67.0,63.5,60.4,100,100,100,26.96,26.89,5,2,7,0.00
2013-8-20,72.1,65.1,57.7,70.5,64.8,57.7,100,99,91,26.99,26.90,7,2,9,0.00
2013-8-21,72.0,65.7,60.1,71.1,65.5,60.1,100,99,90,27.03,26.93,7,1,8,0.00
2013-8-22,77.5,68.8,61.1,70.8,66.1,61.1,100,92,75,26.95,26.86,6,2,10,0.00
2013-8-23,72.5,66.3,62.0,70.2,65.8,62.0,100,98,89,26.90,26.82,6,1,12,0.00
2013-8-24,68.5,62.1,52.5,63.1,58.7,52.5,100,90,69,27.09,26.91,11,2,11,0.00
2013-8-25,68.0,58.5,49.3,62.1,56.0,49.3,100,92,74,27.15,27.07,8,1,10,0.00
2013-8-26,73.4,62.0,49.3,65.7,59.1,49.3,100,91,72,27.09,26.94,7,1,10,0.00
2013-8-27,75.4,67.9,61.1,70.7,66.3,61.1,100,95,81,26.92,26.85,7,2,25,0.00
2013-8-28,77.4,70.7,65.8,72.7,68.9,65.8,100,94,80,26.86,26.76,8,3,37,0.37
2013-8-29,80.1,72.5,66.5,72.4,69.5,66.5,100,91,71,26.85,26.74,9,1,24,0.01
2013-8-30,74.0,67.4,63.3,72.2,67.2,63.3,100,99,94,26.87,26.78,8,2,10,0.17
2013-8-31,76.8,69.1,63.0,73.6,68.5,63.0,100,98,87,26.79,26.73,4,1,9,0.07
2013-9-1,75.8,66.9,60.1,73.6,66.6,60.1,100,99,90,26.75,26.66,7,1,11,0.68
2013-9-2,76.7,69.1,63.3,71.2,67.4,63.3,100,95,81,26.75,26.68,7,2,22,0.00
2013-9-3,74.2,66.7,58.7,68.5,64.6,58.7,100,93,77,26.81,26.67,5,2,13,0.01
2013-9-4,73.7,63.3,54.7,68.4,61.1,54.7,100,93,68,26.92,26.80,6,1,40,0.00
2013-9-5,75.8,64.0,52.3,65.2,58.9,52.3,100,85,54,26.95,26.89,7,2,10,0.01
2013-9-6,69.1,61.3,53.1,66.1,60.3,53.1,100,97,88,26.98,26.90,7,2,12,0.00
2013-9-7,74.9,63.5,53.4,68.8,61.5,53.4,100,94,71,26.91,26.81,5,2,8,0.01
2013-9-8,75.9,67.1,60.6,70.0,65.1,60.6,100,94,79,26.84,26.78,5,1,7,0.00
2013-9-9,72.0,64.8,57.4,70.6,64.3,57.4,100,98,92,26.97,26.85,7,1,10,0.00
2013-9-10,75.9,66.2,55.8,71.8,64.7,55.8,100,95,81,27.04,26.97,6,1,9,0.01
2013-9-11,77.5,67.3,61.4,72.3,66.5,61.4,100,97,80,27.02,26.91,9,2,14,0.04
2013-9-12,77.3,68.4,62.2,71.8,66.4,61.0,100,94,77,26.89,26.69,18,2,75,0.02
2013-9-13,67.7,61.0,50.2,62.5,56.4,48.0,100,86,64,26.72,26.63,0,0,0,0.00
2013-9-14,63.3,52.6,41.3,57.7,50.5,41.3,100,93,79,26.89,26.71,0,0,0,0.00
2013-9-15,66.5,56.9,46.4,62.0,55.7,46.4,100,96,78,26.97,26.89,0,0,0,0.00
2013-9-16,71.3,60.6,51.8,64.1,58.7,51.8,100,94,78,26.95,26.89,0,0,0,0.01
2013-9-17,57.1,54.0,48.5,55.6,53.3,48.5,100,98,90,27.06,26.97,0,0,0,0.00
2013-9-18,57.0,53.3,48.7,57.0,53.3,48.7,100,100,98,27.01,26.92,0,0,0,0.00
2013-9-19,65.1,60.1,56.2,64.6,60.1,56.2,100,100,98,26.94,26.88,0,0,0,0.01
2013-9-20,74.7,65.1,57.0,67.4,63.2,57.0,100,94,75,26.87,26.74,0,0,0,0.00
2013-9-21,62.6,60.2,53.9,62.6,60.2,53.9,100,100,100,26.73,26.53,0,0,0,0.53
2013-9-22,66.2,55.6,47.7,59.5,53.3,47.7,100,93,76,26.70,26.55,0,0,0,0.01
2013-9-23,61.9,51.3,42.2,59.2,50.5,42.2,100,97,88,26.82,26.71,0,0,0,0.01
2013-9-24,66.5,55.3,43.2,62.9,54.1,43.2,100,96,87,26.83,26.73,0,0,0,0.01
2013-9-25,56.8,54.1,50.8,56.8,54.1,50.8,100,100,100,26.71,26.64,0,0,0,0.22
2013-9-26,64.1,56.0,48.6,58.2,54.0,48.6,100,94,73,26.83,26.67,5,1,10,0.00
2013-9-27,64.7,55.1,44.4,60.6,53.7,44.4,100,95,85,26.94,26.83,52,2,56,0.00
2013-9-28,59.8,54.2,50.8,57.2,53.6,50.8,100,98,90,26.99,26.92,0,0,7,0.00
2013-9-29,62.0,54.8,47.1,59.7,54.0,47.1,100,97,88,26.92,26.80,1,0,1,0.00
2013-9-30,63.5,56.8,51.1,59.7,56.1,51.1,100,98,87,26.84,26.80,6,0,169,0.00
2013-10-1,69.7,57.7,47.8,61.7,55.1,47.8,100,92,67,26.91,26.83,3,0,217,0.00
2013-10-2,71.2,60.1,52.5,63.3,57.5,52.5,100,92,71,26.94,26.88,0,0,0,0.01
2013-10-3,69.5,60.0,51.1,64.8,58.4,51.1,100,95,83,26.92,26.88,3,0,185,0.01
2013-10-4,72.9,62.2,53.7,66.2,60.3,53.7,100,94,73,26.95,26.88,0,0,0,0.01
2013-10-5,74.0,62.9,53.1,67.1,60.6,53.1,100,93,76,26.94,26.86,1,0,1,0.01
2013-10-6,69.5,62.4,55.0,65.8,60.9,55.0,100,95,79,26.85,26.71,0,0,0,0.04
2013-10-7,62.5,55.5,46.1,62.5,54.5,45.7,100,96,87,26.79,26.63,0,0,0,1.47
2013-10-8,57.3,47.3,38.6,51.1,45.1,38.6,100,93,76,26.95,26.78,0,0,0,0.00
2013-10-9,63.0,47.8,35.8,51.3,43.3,35.8,100,87,47,26.95,26.88,0,0,0,0.01
2013-10-10,64.8,53.9,41.9,58.6,50.3,41.6,100,88,69,26.85,26.77,0,0,0,0.00
2013-10-11,68.2,58.3,51.7,57.4,52.7,47.6,100,83,62,26.79,26.73,0,0,0,0.00
2013-10-12,62.8,57.9,54.2,60.1,57.2,53.5,100,97,91,26.87,26.75,0,0,0,0.00
2013-10-13,64.0,58.5,55.9,63.7,58.3,55.9,100,100,92,26.98,26.87,0,0,0,0.04
2013-10-14,58.0,55.7,53.3,58.0,55.7,53.3,100,100,100,26.99,26.93,0,0,0,0.06
2013-10-15,53.0,51.3,50.2,53.0,51.3,50.2,100,100,100,26.94,26.89,0,0,0,0.00
2013-10-16,55.2,54.9,54.4,55.2,54.9,54.4,100,100,100,26.75,26.74,0,0,0,0.00
2013-10-17,58.8,56.0,54.4,58.8,56.0,54.4,100,100,100,26.73,26.64,0,0,0,0.10
2013-10-20,54.4,45.7,35.8,44.1,40.1,34.8,100,82,62,26.81,26.74,0,0,0,0.02
2013-10-21,57.3,45.6,32.8,51.9,44.1,32.8,100,95,82,26.84,26.73,0,0,0,0.00
2013-10-22,59.3,51.8,44.9,49.5,47.5,44.9,100,86,69,26.74,26.56,0,0,0,0.00
2013-10-23,47.7,40.6,32.4,47.7,37.1,28.4,100,88,72,26.68,26.47,0,0,0,0.05
2013-10-24,42.5,35.7,30.2,35.6,31.8,27.4,100,86,74,26.82,26.70,0,0,0,0.01
2013-10-25,36.3,29.7,22.4,33.0,27.3,21.7,100,91,80,26.98,26.84,0,0,0,0.14
2013-10-26,50.3,36.3,19.6,37.9,29.5,19.1,100,79,46,26.94,26.74,0,0,0,0.01
2013-10-27,59.1,48.7,41.3,48.5,42.0,35.2,95,78,60,26.83,26.72,0,0,0,0.00
2013-10-28,54.3,51.3,47.0,53.5,50.9,47.0,100,99,95,26.97,26.83,0,0,0,0.00
2013-10-29,59.4,53.2,46.4,53.3,50.6,46.4,100,91,77,27.03,26.96,0,0,0,0.01
2013-10-30,67.0,57.6,50.6,58.5,54.5,50.6,100,90,73,26.99,26.92,0,0,0,0.03
2013-10-31,58.6,56.2,51.8,58.6,55.4,51.8,100,97,90,26.91,26.60,0,0,0,0.05
2013-11-1,69.2,58.7,50.8,58.9,53.1,45.2,100,83,53,26.58,26.46,0,0,0,0.08
2013-11-2,54.8,46.9,39.0,45.9,40.6,34.8,94,79,59,26.68,26.49,0,0,0,0.03
2013-11-3,48.3,39.6,29.8,37.7,33.8,28.4,95,80,62,27.03,26.67,0,0,0,0.00
2013-11-4,45.7,35.7,26.5,32.2,29.4,26.3,100,79,57,27.14,27.03,0,0,0,0.00
2013-11-5,48.5,39.1,27.6,43.6,35.3,26.4,100,87,54,27.16,27.08,0,0,0,0.03
2013-11-6,56.2,49.4,43.3,52.7,48.6,43.3,100,97,84,27.07,26.83,0,0,0,0.06
2013-11-7,55.3,45.2,32.5,55.3,42.4,27.3,100,90,75,26.82,26.72,0,0,0,0.02
2013-11-8,43.6,34.6,27.1,27.2,24.7,22.4,84,68,46,26.94,26.81,0,0,0,0.00
2013-11-9,49.4,38.8,24.6,32.4,25.0,15.0,93,61,29,26.95,26.85,0,0,0,0.00
2013-11-10,55.2,45.7,35.5,39.3,32.3,21.8,75,60,48,26.92,26.84,0,0,0,0.00
2013-11-11,53.0,41.1,27.4,27.7,24.5,20.5,79,53,34,26.97,26.82,0,0,0,0.00
2013-11-12,47.3,34.9,19.1,37.8,25.2,13.3,87,69,44,27.02,26.73,0,0,0,0.00
2013-11-13,39.0,26.0,17.8,20.4,15.5,9.3,82,66,42,27.09,26.99,0,0,0,0.00
2013-11-14,52.1,35.6,18.3,21.9,17.7,11.3,87,52,27,27.04,26.96,0,0,0,0.00
2013-11-15,51.5,39.1,25.4,45.8,33.2,17.6,100,81,43,26.95,26.86,0,0,0,0.16
2013-11-16,49.1,46.2,43.2,49.1,46.2,43.2,100,100,100,26.94,26.88,0,0,0,0.01
2013-11-17,56.4,51.2,48.4,56.4,51.2,48.4,100,100,100,26.90,26.63,0,0,0,0.18
2013-11-18,56.7,50.1,37.7,56.7,43.1,26.6,100,78,54,26.70,26.59,0,0,0,0.06
2013-11-19,46.8,36.9,29.7,27.7,25.2,21.9,77,63,42,26.90,26.68,0,0,0,0.00
2013-11-20,39.8,32.6,26.3,28.9,26.3,22.4,89,78,64,27.06,26.90,0,0,0,0.00
2013-11-21,50.5,40.3,28.4,48.6,39.5,25.5,100,97,90,27.11,27.03,0,0,0,0.05
2013-11-22,57.1,52.5,46.6,57.1,52.5,46.6,100,100,99,27.05,26.84,0,0,0,0.07
2013-11-23,50.9,39.8,24.7,50.6,35.4,17.0,100,85,53,26.87,26.78,0,0,0,0.02
2013-11-24,26.6,20.1,14.7,15.5,7.3,1.6,77,59,36,27.02,26.82,0,0,0,0.00
2013-11-25,26.3,21.3,13.8,21.0,10.6,5.9,89,64,52,27.03,26.91,0,0,0,0.00
2013-11-26,42.5,36.8,23.5,42.5,36.7,21.0,100,100,91,26.90,26.35,0,0,0,2.76
2013-11-27,41.6,25.5,16.2,41.0,22.9,11.5,100,90,75,26.69,26.30,0,0,0,0.05
2013-11-28,42.7,25.4,14.0,22.0,15.2,9.6,85,68,27,27.02,26.70,0,0,0,0.02
2013-11-29,48.7,34.7,25.8,28.1,20.6,10.9,82,57,39,27.17,27.02,0,0,0,0.01
2013-11-30,36.3,26.3,19.2,26.3,21.4,17.8,95,82,65,27.17,26.94,0,0,0,0.00
2013-12-1,50.6,35.7,19.1,36.2,29.2,18.4,97,79,55,26.94,26.71,0,0,0,0.00
2013-12-2,46.7,37.5,26.7,39.3,33.8,25.3,100,87,75,26.69,26.52,0,0,0,0.00
2013-12-3,52.0,43.2,34.9,48.1,42.3,33.9,100,96,84,26.66,26.55,0,0,0,0.02
2013-12-4,52.7,48.3,42.6,52.7,48.3,42.6,100,100,100,26.78,26.65,0,0,0,0.01
2013-12-5,60.9,55.8,49.9,59.8,55.7,49.9,100,100,94,26.81,26.74,0,0,0,0.18
2013-12-6,62.0,59.3,50.6,62.0,59.3,50.6,100,100,100,26.76,26.71,0,0,0,0.39
2013-12-7,52.4,40.9,32.5,52.4,40.5,32.5,100,99,93,27.02,26.73,0,0,0,0.00
2013-12-8,32.5,28.6,27.1,32.1,28.6,27.1,100,100,100,27.00,26.83,0,0,0,0.12
2013-12-9,52.5,44.2,28.1,52.5,44.2,28.1,100,100,98,26.83,26.71,0,0,0,0.31
2013-12-10,45.5,34.1,23.9,45.5,32.0,17.2,100,92,72,26.87,26.59,0,0,0,0.28
2013-12-11,44.4,32.0,22.3,22.0,17.2,14.0,74,56,33,26.99,26.86,0,0,0,0.00
2013-12-12,31.8,25.1,20.9,20.2,17.2,12.0,87,72,54,26.95,26.86,0,0,0,0.00
2013-12-13,45.2,32.1,22.6,26.6,18.7,8.9,73,58,42,26.92,26.86,0,0,0,0.00
2013-12-14,43.0,33.3,30.6,43.0,30.1,24.0,100,89,64,26.87,26.45,0,0,0,0.67
2013-12-15,43.0,31.3,25.2,42.9,30.9,24.6,100,98,94,26.69,26.42,0,0,0,0.04
2013-12-16,45.4,34.2,25.9,34.5,28.8,25.0,100,82,60,26.78,26.68,0,0,0,0.00
2013-12-17,49.3,38.7,30.8,37.8,32.0,22.9,94,77,61,26.76,26.60,0,0,0,0.05
2013-12-18,36.8,29.1,23.2,21.6,17.2,13.4,77,62,45,26.89,26.65,0,0,0,0.00
2013-12-19,59.2,42.4,25.3,35.5,27.3,15.1,83,58,33,26.93,26.86,0,0,0,0.00
2013-12-20,55.6,45.3,32.1,39.5,32.0,23.9,79,60,43,26.86,26.80,0,0,0,0.00
2013-12-21,57.7,53.3,48.0,57.7,52.7,39.5,100,98,76,26.81,26.71,0,0,0,0.25
2013-12-22,59.2,54.7,51.1,59.2,54.7,51.1,100,100,100,26.79,26.69,0,0,0,2.46
2013-12-23,55.3,43.2,28.6,55.3,43.1,27.4,100,99,95,26.83,26.71,0,0,0,0.41
2013-12-24,28.6,23.9,15.6,26.9,20.4,9.9,97,86,73,26.95,26.80,0,0,0,0.00
2013-12-25,30.2,19.7,11.5,13.1,10.2,7.4,88,69,44,27.03,26.91,0,0,0,0.00
2013-12-26,39.8,29.2,16.4,27.8,22.2,12.4,88,75,58,26.95,26.87,0,0,0,0.00
2013-12-27,46.6,31.0,19.1,26.5,21.0,18.1,97,70,36,27.04,26.95,0,0,0,0.00
2013-12-28,48.9,36.1,21.8,42.0,26.8,16.6,100,71,43,27.01,26.81,0,0,0,0.19
2013-12-29,44.3,38.2,33.9,44.3,37.9,33.9,100,99,91,26.79,26.44,0,0,0,0.56
2013-12-30,38.2,34.6,31.1,36.6,33.9,28.1,100,97,88,26.77,26.61,0,0,0,0.00
2013-12-31,31.6,27.7,25.2,26.6,22.4,19.8,94,80,68,26.95,26.75,0,0,0,0.00
2014-1-1,39.0,29.7,21.5,27.8,22.6,17.4,89,75,61,26.95,26.83,0,0,0,0.00
2014-1-2,22.0,17.9,15.2,21.5,16.8,13.5,98,95,93,26.40,26.40,0,0,0,0.00